• Join FlightAware (Why Join?)
  • Login
  • US Flag 
07:41AM EDT


 

Airport Tracker/Info


-or-


 

Live Flight TrackerFlight Track Log ✈ GJS3710 ✈ 25-May-2013 ✈ KDEN - KOMA

Flight Track Log - Related Links

Times and Time Zones

All times are in EDT time to prevent confusion due to time zone crossing. See the GJS3710 flight status page for this flight to view local times or setup timezone preferences in your user account.

Time Position Orientation Groundspeed Altitude Reporting Facility
EDT Latitude Longitude Course Direction KTS MPH feet Rate Location/Type
05:14PM 39.8764 -104.6025 79° East 160 184 6,900  Level Denver Center
05:15PM 39.8892 -104.5311 77° East 206 237 8,900 1,800 Climbing Denver Center
05:16PM 39.9075 -104.4364 76° East 252 290 10,700 1,620 Climbing Denver Center
05:17PM 39.9521 -104.1133 73° East  Level FlightAware Approximate
05:17PM 39.9256 -104.3317 77° East 291 335 12,300  Level Denver Center
05:18PM 39.9697 -103.9741 66° East  Level FlightAware Approximate
05:18PM 39.9458 -104.2133 77° East 331 381 13,800  Level Denver Center
05:19PM 39.9972 -103.8366 79° East  Level FlightAware Approximate
05:19PM 39.9706 -104.0703 77° East 372 428 15,500  Level Denver Center
05:20PM 40.0255 -103.7053 79° East  Level FlightAware Approximate
05:20PM 39.9936 -103.9314 78° East 391 450 17,500  Level Denver Center
05:21PM 40.0183 -103.7875 77° East 405 466 19,500 1,800 Climbing Denver Center
05:22PM 40.0400 -103.6503 78° East 396 456 21,300 1,620 Climbing Denver Center
05:24PM 40.0689 -103.4839 77° East 418 481 23,200 1,680 Climbing Denver Center
05:25PM 40.1003 -103.2844 78° East 437 503 25,100 1,620 Climbing Denver Center
05:26PM 40.1244 -103.1319 78° East 446 513 26,600 1,380 Climbing Denver Center
05:27PM 40.1489 -102.9783 78° East 449 517 28,000 1,260 Climbing Denver Center
05:28PM 40.1769 -102.7961 79° East 456 525 29,300 1,140 Climbing Denver Center
05:29PM 40.2011 -102.6369 79° East 464 534 30,400 1,080 Climbing Denver Center
05:30PM 40.2300 -102.4500 78° East 470 541 31,600 1,080 Climbing Denver Center
05:31PM 40.2547 -102.2883 79° East 474 545 32,700 1,080 Climbing Denver Center
05:32PM 40.2828 -102.0992 79° East 474 545 33,900 1,080 Climbing Denver Center
05:33PM 40.3078 -101.9386 78° East 471 542 35,000 720 Climbing Denver Center
05:34PM 40.3317 -101.7756 79° East 475 547 35,400 780 Climbing Denver Center
05:35PM 40.3594 -101.5833 79° East 480 552 36,600 780 Climbing Denver Center
05:36PM 40.3839 -101.4214 79° East 476 548 37,000 180 Climbing Denver Center
05:37PM 40.4103 -101.2244 80° East 490 564 37,000  Level Denver Center
05:38PM 40.4303 -101.0819 80° East 497 572 37,000  Level Denver Center
05:39PM 40.4661 -100.8606 78° East 490 564 37,000  Level Denver Center
05:40PM 40.5017 -100.6986 74° East 487 560 37,000  Level Denver Center
05:41PM 40.5414 -100.5094 74° East 485 558 37,000  Level Denver Center
05:42PM 40.5764 -100.3481 74° East 485 558 37,000  Level Denver Center
05:43PM 40.6100 -100.1850 75° East 486 559 37,000  Level Denver Center
05:44PM 40.6497 -99.9981 74° East 480 552 37,000  Level Denver Center
05:45PM 40.6828 -99.8344 75° East 479 551 37,000 -540 Level Denver Center
05:46PM 40.7186 -99.6642 74° East 482 555 36,000 -1,020 Descending Denver Center
05:47PM 40.7522 -99.4936 75° East 483 556 35,000 -540 Descending Denver Center
05:48PM 40.7867 -99.3239 75° East 481 554 35,000  Level Denver Center
05:49PM 40.8269 -99.1231 75° East 476 548 35,000  Level Denver Center
05:50PM 40.8558 -98.9706 76° East 475 547 35,000  Level Denver Center
05:51PM 40.8939 -98.7817 75° East 477 549 35,000 -600 Level Denver Center
05:52PM 40.9239 -98.6206 76° East 477 549 33,800 -1,500 Descending Denver Center
05:53PM 40.9586 -98.4500 75° East 485 558 32,000 -1,860 Descending Denver Center
05:54PM 41.0019 -98.2433 74° East 489 563 29,900 -1,680 Descending Minneapolis Center
05:55PM 41.0383 -98.1094 70° East 487 560 28,500 -1,620 Descending Minneapolis Center
05:56PM 41.0919 -97.9103 70° East 482 555 26,700 -1,620 Descending Minneapolis Center
05:57PM 41.1356 -97.7481 70° East 473 544 25,200 -1,620 Descending Minneapolis Center
05:58PM 41.1858 -97.5572 71° East 462 532 23,400 -1,620 Descending Minneapolis Center
05:59PM 41.2261 -97.3983 71° East 457 526 21,900 -1,500 Descending Minneapolis Center
06:01PM 41.2683 -97.2397 70° East 449 517 20,400 -1,560 Descending Minneapolis Center
06:02PM 41.2944 -97.0869 77° East 440 506 18,800 -1,500 Descending Minneapolis Center
06:02PM 41.3258 -96.9731 70° East 429 494 17,700 -1,500 Descending Minneapolis Center
06:03PM 41.3533 -96.9100 60° Northeast 420 483 17,000 -1,440 Descending Minneapolis Center
06:03PM 41.3494 -96.8375 94° East 362 417 16,300 -1,500 Descending Minneapolis Center
06:04PM 41.3542 -96.7794 84° East 366 421 15,500 -2,100 Descending Minneapolis Center
06:04PM 41.3519 -96.7014 92° East 345 397 14,200 -1,860 Descending Minneapolis Center
06:05PM 41.3669 -96.6556 66° East 343 395 13,600 -1,740 Descending Minneapolis Center
06:05PM 41.3719 -96.5825 85° East 330 380 12,500 -1,980 Descending Minneapolis Center
06:06PM 41.3856 -96.5375 68° East 331 381 11,600 -2,460 Descending Minneapolis Center
06:06PM 41.3883 -96.4697 87° East 310 357 10,000 -2,460 Descending Minneapolis Center
06:07PM 41.4017 -96.4258 68° East 314 361 9,100 -2,580 Descending Minneapolis Center
06:07PM 41.4064 -96.3594 85° East 302 348 7,400 -2,340 Descending Minneapolis Center
06:08PM 41.4172 -96.3153 72° East 306 352 6,700 -2,400 Descending Minneapolis Center
06:08PM 41.4231 -96.2550 83° East 290 334 5,000 -2,400 Descending Minneapolis Center
06:09PM 41.4328 -96.2133 73° East 295 339 4,300 -1,920 Descending Minneapolis Center
06:09PM 41.4378 -96.1589 83° East 262 302 3,100 -1,320 Descending Minneapolis Center
06:10PM 41.4411 -96.1200 83° East 269 310 3,000  Descending Minneapolis Center
06:10PM 41.4411 -96.0778 90° East 192 221 3,100  Climbing Minneapolis Center
06:11PM 41.4394 -96.0469 94° East 223 257 3,000 -120 Descending Minneapolis Center
06:11PM 41.4225 -96.0186 129° Southeast 170 196 3,000  Level Minneapolis Center
06:12PM 41.4094 -95.9933 125° Southeast 192 221 3,000 -300 Level Minneapolis Center
06:12PM 41.3822 -95.9789 158° South 161 185 2,700 -600 Descending Minneapolis Center